CheckWX is a tool to help pilots better visualize weather data.  It is not intended as a substitute for an official pre-flight weather briefing.

03:08:55 UTC

KESF METAR
Esler Regional Airport
Alexandria, Louisiana, USA
Current

16 mins ago

KESF 240253Z AUTO 20005KT 10SM CLR 17/09 A3016 RMK AO2 SLP212 T01670089 53013
Observed
Mar-24 @ 02:53 UTC
Wind
  • 200° at 5 KTS
Visibility
10 SM
Flight Rules
VFR
Cloud Levels
  • Clear skies
Temperature
17°C / 63°F
Dewpoint
C / 48°F
Humidity
59%
Altimeter
30.16" Hg
Pressure
1021.2 hPa
Previous

1 hour ago

KESF 240153Z AUTO 13003KT 9SM CLR 13/09 A3014 RMK AO2 SLP204 T01330089
Observed
Mar-24 @ 01:53 UTC
Wind
  • 130° at 3 KTS
Visibility
9 SM
Flight Rules
VFR
Cloud Levels
  • Clear skies
Temperature
13°C / 55°F
Dewpoint
C / 48°F
Humidity
77%
Altimeter
30.14" Hg
Pressure
1020.4 hPa
Previous

2 hours ago

KESF 240053Z AUTO 00000KT 10SM CLR 18/08 A3013 RMK AO2 SLP202 T01830078
Observed
Mar-24 @ 00:53 UTC
Visibility
10 SM
Flight Rules
VFR
Cloud Levels
  • Clear skies
Temperature
18°C / 64°F
Dewpoint
C / 46°F
Humidity
52%
Altimeter
30.13" Hg
Pressure
1020.2 hPa